Overview Statistics Trail Chart Weather Telemetry Raw packets
 

This is the latest recevied weather packets stored in our database for station/object F5TND-14. If no packets are shown the sender has not sent any weather packets the latest 10 day(s).

<< 45 46 47 48 49 50 51 >>
Time Temp. Humidity Pressure Rain* Wind** Luminosity Snow
1787872373 23.33° C 63% 1011.8 hPa - - - -
1787871773 23.33° C 64% 1011.7 hPa - - - -
1787871173 23.33° C 64% 1011.7 hPa - - - -
1787870573 23.33° C 64% 1012 hPa - - - -
1787869973 22.22° C 67% 1011.7 hPa - - - -
1787869346 22.78° C 66% 1011.6 hPa - - - -
1787868744 22.78° C 67% 1011.9 hPa - - - -
1787868145 22.22° C 70% 1012.7 hPa - - - -
1787867544 21.11° C 75% 1012.4 hPa - - - -
1787866946 22.22° C 71% 1012.4 hPa - - - -
1787866346 21.67° C 74% 1011.9 hPa - - - -
1787865744 21.11° C 75% 1011.5 hPa - - - -
1787865144 21.11° C 75% 1011.4 hPa - - - -
1787864544 21.11° C 76% 1011.4 hPa - - - -
1787863944 21.11° C 75% 1011.2 hPa - - - -
1787863344 21.11° C 74% 1011.3 hPa - - - -
1787862748 21.67° C 72% 1011 hPa - - - -
1787862144 22.78° C 67% 1012.2 hPa - - - -
1787861550 24.44° C 57% 1012.4 hPa - - - -
1787860941 24.44° C 57% 1011.8 hPa - - - -
1787860344 23.89° C 57% 1011.1 hPa - - - -
1787859740 23.89° C 57% 1010.9 hPa - - - -
1787859143 23.89° C 58% 1010.8 hPa - - - -
1787858589 24.44° C 57% 1010.8 hPa - - - -
1787857988 24.44° C 57% 1010.6 hPa - - - -

* Rain since midnight (hover to see other rain measurements)
** Current wind speed in m/s (hover to see current wind gust speed)